Time;durP1;ratioP1;P1;durP2;ratioP2;P2;SDS_P1;SDS_P2;PMS_P1;PMS_P2;Temp;Humidity;BMP_temperature;BMP_pressure;BME280_temperature;BME280_humidity;BME280_pressure;Samples;Min_cycle;Max_cycle;Signal;HPM_P1;HPM_P2
2022/10/17 00:00:11;;;;;;;5.93;2.47;;;;;;;15.25;100.00;155279.50;5033901;28;20434;-75
2022/10/17 00:02:37;;;;;;;5.23;3.30;;;;;;;15.25;100.00;155278.19;5029636;28;20458;-75
2022/10/17 00:05:05;;;;;;;5.43;3.50;;;;;;;15.23;100.00;155274.31;5045816;28;20459;-77
2022/10/17 00:07:31;;;;;;;4.20;3.03;;;;;;;15.22;100.00;155270.44;5034505;28;20467;-77
2022/10/17 00:09:58;;;;;;;5.60;3.33;;;;;;;15.20;100.00;155265.19;5028824;28;20463;-77
2022/10/17 00:12:25;;;;;;;4.83;3.17;;;;;;;15.17;100.00;155257.41;5030687;28;20447;-76
2022/10/17 00:14:51;;;;;;;3.20;2.90;;;;;;;15.15;100.00;155252.22;5015876;28;20470;-76
2022/10/17 00:17:19;;;;;;;5.40;3.10;;;;;;;15.12;100.00;155245.72;5031711;28;20444;-76
2022/10/17 00:19:46;;;;;;;4.40;2.80;;;;;;;15.09;100.00;155236.66;5030728;28;20539;-76
2022/10/17 00:22:13;;;;;;;4.87;2.90;;;;;;;15.06;100.00;155228.84;5032076;28;20467;-76
2022/10/17 00:24:39;;;;;;;3.90;2.80;;;;;;;15.05;100.00;155226.22;5027083;28;20436;-76
2022/10/17 00:27:06;;;;;;;3.47;2.97;;;;;;;15.04;100.00;155224.94;5028584;28;20463;-76
2022/10/17 00:29:33;;;;;;;3.47;2.63;;;;;;;15.02;100.00;155218.44;5029638;28;20488;-76
2022/10/17 00:31:59;;;;;;;3.80;2.77;;;;;;;14.99;100.00;155211.94;5031549;28;20550;-76
2022/10/17 00:34:29;;;;;;;3.80;2.83;;;;;;;14.96;100.00;155202.81;5031414;28;20478;-76
2022/10/17 00:36:56;;;;;;;3.30;3.00;;;;;;;14.94;100.00;155197.66;5029957;28;20460;-76
2022/10/17 00:39:24;;;;;;;4.40;3.13;;;;;;;14.91;100.00;155189.84;5014687;28;20432;-77
2022/10/17 00:41:51;;;;;;;5.43;2.90;;;;;;;14.90;100.00;155187.28;5022010;28;20448;-77
2022/10/17 00:45:01;;;;;;;3.93;2.93;;;;;;;14.85;100.00;155175.53;5030483;28;20478;-76
2022/10/17 00:47:28;;;;;;;2.73;2.53;;;;;;;14.82;100.00;155166.47;4991814;28;20551;-76
2022/10/17 00:49:57;;;;;;;4.73;3.03;;;;;;;14.85;100.00;155174.28;5029979;28;20558;-76
2022/10/17 00:52:28;;;;;;;6.80;2.77;;;;;;;14.83;100.00;155169.06;5013641;28;20448;-77
2022/10/17 00:54:58;;;;;;;3.17;2.67;;;;;;;14.82;100.00;155166.47;5013524;28;20549;-77
2022/10/17 00:57:26;;;;;;;3.63;3.10;;;;;;;14.84;100.00;155171.66;5035672;28;20910;-76
2022/10/17 00:59:54;;;;;;;3.50;3.07;;;;;;;14.88;100.00;155183.34;5033206;28;20444;-76
2022/10/17 01:02:22;;;;;;;5.03;3.47;;;;;;;14.90;100.00;155188.56;5019342;28;20546;-77
2022/10/17 01:04:50;;;;;;;4.97;3.63;;;;;;;14.92;100.00;155192.47;5028070;28;20455;-76
2022/10/17 01:07:18;;;;;;;3.97;2.87;;;;;;;14.88;100.00;155182.09;5036176;28;20490;-77
2022/10/17 01:09:46;;;;;;;3.67;3.00;;;;;;;14.85;100.00;155174.28;5034706;28;20443;-76
2022/10/17 01:12:18;;;;;;;3.53;2.73;;;;;;;14.79;100.00;155160.00;5034164;28;20484;-76
2022/10/17 01:14:50;;;;;;;2.77;2.50;;;;;;;14.79;100.00;155158.69;5030159;28;20467;-76
2022/10/17 01:17:24;;;;;;;3.50;2.57;;;;;;;14.75;100.00;155148.25;5032086;28;20517;-76
2022/10/17 01:20:05;;;;;;;5.43;3.20;;;;;;;14.78;100.00;155156.06;5036309;28;20430;-77
2022/10/17 01:22:36;;;;;;;5.33;2.70;;;;;;;14.72;100.00;155140.50;5034423;28;20583;-76
2022/10/17 01:25:18;;;;;;;3.40;3.10;;;;;;;14.70;100.00;155135.28;5019291;28;20493;-76
2022/10/17 01:27:53;;;;;;;3.83;2.87;;;;;;;14.70;100.00;155135.28;5035612;28;21004;-76
2022/10/17 01:30:48;;;;;;;3.47;3.17;;;;;;;14.64;100.00;155122.28;5020169;28;20443;-76
2022/10/17 01:33:21;;;;;;;3.60;2.70;;;;;;;14.57;100.00;155104.13;5016177;28;20455;-76
2022/10/17 01:35:52;;;;;;;4.20;2.67;;;;;;;14.54;100.00;155096.31;5037003;28;20479;-77
2022/10/17 01:38:22;;;;;;;3.97;2.87;;;;;;;14.47;100.00;155076.84;5020714;28;20435;-77
2022/10/17 01:40:54;;;;;;;4.43;2.97;;;;;;;14.42;100.00;155065.19;5018968;28;20467;-76
2022/10/17 01:43:24;;;;;;;4.20;3.03;;;;;;;14.40;100.00;155059.94;5033679;28;21159;-76
2022/10/17 01:45:54;;;;;;;4.13;3.73;;;;;;;14.36;100.00;155049.59;5021065;28;20460;-76
2022/10/17 01:48:24;;;;;;;3.07;2.70;;;;;;;14.31;100.00;155035.25;5012263;28;20432;-76
2022/10/17 01:50:53;;;;;;;5.83;3.30;;;;;;;14.26;100.00;155023.56;5006617;28;20460;-77
2022/10/17 01:53:24;;;;;;;3.57;2.73;;;;;;;14.22;100.00;155013.16;5032998;28;20447;-76
2022/10/17 01:55:52;;;;;;;3.53;2.80;;;;;;;14.18;100.00;155002.78;5020242;28;20486;-76
2022/10/17 01:58:23;;;;;;;3.20;2.87;;;;;;;14.16;100.00;154996.31;5021803;28;20460;-76
2022/10/17 02:00:50;;;;;;;5.00;2.60;;;;;;;14.15;100.00;154993.69;5034960;28;20489;-76
2022/10/17 02:03:19;;;;;;;4.30;3.17;;;;;;;14.10;100.00;154982.03;5033536;28;20457;-76
2022/10/17 02:05:48;;;;;;;8.10;3.17;;;;;;;14.09;100.00;154979.41;5034143;28;20465;-76
2022/10/17 02:08:25;;;;;;;4.60;3.00;;;;;;;14.07;100.00;154974.22;5011691;28;20455;-77
2022/10/17 02:10:56;;;;;;;3.50;3.03;;;;;;;14.10;100.00;154982.03;5013104;28;20490;-76
2022/10/17 02:13:29;;;;;;;4.00;2.90;;;;;;;14.09;100.00;154978.09;5024320;28;20530;-75
2022/10/17 02:16:07;;;;;;;4.53;2.43;;;;;;;14.04;100.00;154966.41;5008418;28;20586;-77
2022/10/17 02:19:04;;;;;;;5.20;3.43;;;;;;;14.01;100.00;154958.63;5013884;28;20845;-76
2022/10/17 02:21:41;;;;;;;3.60;3.03;;;;;;;14.02;100.00;154962.56;5033280;28;20495;-76
2022/10/17 02:24:17;;;;;;;4.80;2.97;;;;;;;14.02;100.00;154962.56;5015326;28;20428;-76
2022/10/17 02:26:47;;;;;;;4.70;3.10;;;;;;;14.08;100.00;154976.84;5028047;28;20459;-74
2022/10/17 02:29:18;;;;;;;6.77;3.57;;;;;;;14.12;100.00;154987.19;5033556;28;20413;-76
2022/10/17 02:31:47;;;;;;;3.20;2.90;;;;;;;14.21;100.00;155009.28;5013317;28;20474;-75
2022/10/17 02:34:17;;;;;;;3.93;3.00;;;;;;;14.27;100.00;155024.88;5030307;28;20475;-74
2022/10/17 02:36:50;;;;;;;2.97;2.67;;;;;;;14.31;100.00;155036.59;5033203;28;20483;-74
2022/10/17 02:39:17;;;;;;;2.93;2.63;;;;;;;14.28;100.00;155028.75;5031022;28;20449;-76
2022/10/17 02:41:44;;;;;;;4.57;3.10;;;;;;;14.22;100.00;155013.16;5010788;28;20559;-77
2022/10/17 02:44:11;;;;;;;4.23;2.97;;;;;;;14.17;100.00;154998.88;4996788;28;20567;-76
2022/10/17 02:46:39;;;;;;;3.60;3.20;;;;;;;14.22;100.00;155011.84;5014864;28;20429;-76
2022/10/17 02:49:12;;;;;;;8.53;3.47;;;;;;;14.25;100.00;155020.94;5023710;28;20514;-76
2022/10/17 02:51:45;;;;;;;3.10;2.80;;;;;;;14.32;100.00;155037.91;5031943;28;20919;-76
2022/10/17 02:54:18;;;;;;;3.73;2.80;;;;;;;14.36;100.00;155049.59;5031194;28;20805;-76
2022/10/17 02:56:50;;;;;;;5.60;3.10;;;;;;;14.42;100.00;155063.88;5031786;28;20535;-76
2022/10/17 02:59:20;;;;;;;6.30;3.20;;;;;;;14.44;100.00;155070.38;5013880;28;20539;-76
2022/10/17 03:01:47;;;;;;;3.00;2.70;;;;;;;14.47;100.00;155078.16;5015633;28;20494;-76
2022/10/17 03:04:14;;;;;;;3.10;2.60;;;;;;;14.48;100.00;155079.47;5033829;28;20482;-76
2022/10/17 03:06:42;;;;;;;4.43;2.90;;;;;;;14.48;100.00;155079.47;5032983;28;20443;-76
2022/10/17 03:09:09;;;;;;;3.20;2.70;;;;;;;14.45;100.00;155071.69;5031505;28;20456;-76
2022/10/17 03:11:37;;;;;;;2.90;2.60;;;;;;;14.38;100.00;155054.75;5028258;28;20537;-76
2022/10/17 03:14:07;;;;;;;4.93;2.67;;;;;;;14.32;100.00;155039.16;5027125;28;20809;-76
2022/10/17 03:16:33;;;;;;;3.50;3.00;;;;;;;14.31;100.00;155036.59;5030924;28;20582;-77
2022/10/17 03:19:00;;;;;;;8.80;3.20;;;;;;;14.31;100.00;155036.59;5010718;28;20483;-76
2022/10/17 03:21:27;;;;;;;6.00;3.80;;;;;;;14.26;100.00;155023.56;5011789;28;20837;-76
2022/10/17 03:23:55;;;;;;;4.40;3.30;;;;;;;14.31;100.00;155036.59;5029841;28;20803;-76
2022/10/17 03:26:22;;;;;;;5.83;3.10;;;;;;;14.31;100.00;155035.25;5012967;28;20462;-76
2022/10/17 03:28:51;;;;;;;6.90;3.87;;;;;;;14.27;100.00;155024.88;5015121;28;20803;-77
2022/10/17 03:31:18;;;;;;;5.60;3.47;;;;;;;14.30;100.00;155033.94;5021018;28;20498;-76
2022/10/17 03:33:45;;;;;;;4.50;3.67;;;;;;;14.34;100.00;155043.09;5014970;28;20828;-76
2022/10/17 03:36:14;;;;;;;4.27;3.87;;;;;;;14.33;100.00;155041.78;5029810;28;20491;-76
2022/10/17 03:38:43;;;;;;;4.30;3.90;;;;;;;14.29;100.00;155030.06;5014205;28;20494;-76
2022/10/17 03:41:10;;;;;;;4.47;3.83;;;;;;;14.25;100.00;155020.94;5029361;28;20448;-76
2022/10/17 03:43:39;;;;;;;6.03;3.20;;;;;;;14.22;100.00;155013.16;5030061;28;20978;-76
2022/10/17 03:46:07;;;;;;;4.10;3.70;;;;;;;14.16;100.00;154997.59;5006743;28;20517;-76
2022/10/17 03:48:34;;;;;;;5.53;3.37;;;;;;;14.11;100.00;154984.59;5011186;28;20836;-76
2022/10/17 03:51:05;;;;;;;4.90;3.80;;;;;;;14.08;100.00;154975.53;5010580;28;20467;-76
2022/10/17 03:53:34;;;;;;;3.93;3.40;;;;;;;14.05;100.00;154969.03;5026668;28;20877;-76
2022/10/17 03:56:10;;;;;;;4.60;3.50;;;;;;;14.06;100.00;154971.59;5029648;28;20514;-76
2022/10/17 03:58:36;;;;;;;5.30;3.50;;;;;;;14.04;100.00;154966.41;5017719;28;20480;-76
2022/10/17 04:01:04;;;;;;;6.73;4.30;;;;;;;14.00;100.00;154956.06;5011099;28;20444;-76
2022/10/17 04:03:33;;;;;;;3.47;3.17;;;;;;;14.00;100.00;154957.31;5006025;28;20947;-76
2022/10/17 04:06:01;;;;;;;3.17;2.87;;;;;;;13.99;100.00;154953.44;5030815;28;20448;-76
2022/10/17 04:08:29;;;;;;;4.90;3.53;;;;;;;13.99;100.00;154953.44;5013613;28;20482;-77
2022/10/17 04:11:07;;;;;;;4.40;3.10;;;;;;;14.01;100.00;154958.63;5007635;28;20472;-76
2022/10/17 04:13:35;;;;;;;8.33;3.20;;;;;;;14.00;100.00;154956.06;5013946;28;20951;-76
2022/10/17 04:16:04;;;;;;;3.67;2.83;;;;;;;13.99;100.00;154954.75;5031046;28;20943;-76
2022/10/17 04:18:33;;;;;;;6.57;3.70;;;;;;;13.99;100.00;154953.44;5011579;28;20453;-76
2022/10/17 04:21:01;;;;;;;5.57;3.50;;;;;;;14.01;100.00;154958.63;5011510;28;20466;-76
2022/10/17 04:23:28;;;;;;;4.67;3.30;;;;;;;14.04;100.00;154967.72;5013027;28;20479;-76
2022/10/17 04:26:00;;;;;;;4.67;3.23;;;;;;;14.01;100.00;154958.63;5014052;28;20475;-76
2022/10/17 04:28:27;;;;;;;4.20;3.50;;;;;;;14.04;100.00;154966.41;5030428;28;21555;-76
2022/10/17 04:30:57;;;;;;;3.63;3.23;;;;;;;14.01;100.00;154959.94;5012849;28;20846;-76
2022/10/17 04:33:24;;;;;;;4.30;3.60;;;;;;;13.99;100.00;154953.44;5014338;28;20489;-76
2022/10/17 04:35:59;;;;;;;4.20;3.80;;;;;;;13.94;100.00;154941.78;5010980;28;21057;-76
2022/10/17 04:38:27;;;;;;;4.83;3.77;;;;;;;13.90;100.00;154930.06;5013895;28;20454;-76
2022/10/17 04:40:54;;;;;;;4.10;3.63;;;;;;;13.86;100.00;154919.69;5014160;28;20486;-77
2022/10/17 04:43:21;;;;;;;3.80;3.43;;;;;;;13.83;100.00;154913.22;5031040;28;20479;-76
2022/10/17 04:45:49;;;;;;;6.10;3.77;;;;;;;13.82;100.00;154909.34;5014034;28;20483;-76
2022/10/17 04:48:15;;;;;;;8.70;3.83;;;;;;;13.81;100.00;154906.72;5027336;28;20456;-76
2022/10/17 04:50:42;;;;;;;4.83;4.43;;;;;;;13.77;100.00;154897.63;5013286;28;20459;-76
2022/10/17 04:53:33;;;;;;;5.43;4.00;;;;;;;13.73;100.00;154885.94;4994492;28;20488;-76
2022/10/17 04:56:00;;;;;;;5.70;4.00;;;;;;;13.70;100.00;154878.16;5013363;28;20562;-76
2022/10/17 04:58:28;;;;;;;5.53;3.83;;;;;;;13.67;100.00;154870.34;5025907;28;20462;-76
2022/10/17 05:00:55;;;;;;;4.33;3.93;;;;;;;13.62;100.00;154857.38;5009545;28;20901;-78
2022/10/17 05:03:26;;;;;;;5.70;4.00;;;;;;;13.65;100.00;154865.19;5027907;28;20420;-76
2022/10/17 05:05:53;;;;;;;5.40;4.50;;;;;;;13.62;100.00;154858.69;5010657;28;20873;-76
2022/10/17 05:08:21;;;;;;;4.73;3.63;;;;;;;13.61;100.00;154854.81;5007363;28;20499;-77
2022/10/17 05:10:49;;;;;;;3.70;3.40;;;;;;;13.60;100.00;154852.22;5012632;28;20550;-76
2022/10/17 05:13:15;;;;;;;4.20;3.77;;;;;;;13.60;100.00;154852.22;5014178;28;20965;-89
2022/10/17 05:15:42;;;;;;;4.40;3.77;;;;;;;13.58;100.00;154848.28;5007951;28;20481;-89
2022/10/17 05:18:09;;;;;;;5.73;3.60;;;;;;;13.61;100.00;154854.81;5034623;28;20901;-89
2022/10/17 05:20:37;;;;;;;5.57;3.50;;;;;;;13.62;100.00;154858.69;5011754;28;20855;-89
2022/10/17 05:23:03;;;;;;;4.23;3.73;;;;;;;13.63;100.00;154860.00;5012855;28;20432;-89
2022/10/17 05:25:35;;;;;;;6.07;3.63;;;;;;;13.64;100.00;154863.88;5031432;28;20443;-89
2022/10/17 05:28:03;;;;;;;5.87;3.83;;;;;;;13.62;100.00;154858.69;5037848;28;20441;-89
2022/10/17 05:30:30;;;;;;;5.40;3.90;;;;;;;13.61;100.00;154856.06;5026545;28;20471;-89
2022/10/17 05:33:00;;;;;;;6.73;4.40;;;;;;;13.60;100.00;154853.50;5013537;28;20451;-89
2022/10/17 05:35:27;;;;;;;4.60;3.70;;;;;;;13.60;100.00;154852.22;5013064;28;20837;-89
2022/10/17 05:37:53;;;;;;;8.70;4.07;;;;;;;13.59;100.00;154849.59;5030554;28;20476;-89
2022/10/17 05:40:22;;;;;;;6.07;4.53;;;;;;;13.60;100.00;154852.22;5029055;28;20505;-89
2022/10/17 05:42:51;;;;;;;3.53;2.87;;;;;;;13.61;100.00;154856.06;5031655;28;20833;-90
2022/10/17 05:45:20;;;;;;;3.43;3.00;;;;;;;13.64;100.00;154862.56;5016787;28;20455;-89
2022/10/17 05:47:47;;;;;;;8.50;3.63;;;;;;;13.62;100.00;154857.38;5032172;28;20863;-90
2022/10/17 05:50:14;;;;;;;3.87;3.57;;;;;;;13.66;100.00;154869.06;5032171;28;20489;-89
2022/10/17 05:53:01;;;;;;;5.17;3.23;;;;;;;13.66;100.00;154867.78;5032175;28;20953;-89
2022/10/17 05:55:28;;;;;;;4.20;3.40;;;;;;;13.66;100.00;154867.78;5033688;28;20443;-90
2022/10/17 05:57:55;;;;;;;3.97;3.40;;;;;;;13.68;100.00;154872.97;5014593;28;20480;-90
2022/10/17 06:00:25;;;;;;;8.90;3.23;;;;;;;13.71;100.00;154882.06;5001326;28;20544;-89
2022/10/17 06:02:57;;;;;;;4.40;3.50;;;;;;;13.72;100.00;154883.34;4997449;28;20452;-89
2022/10/17 06:05:24;;;;;;;3.90;3.17;;;;;;;13.75;100.00;154891.13;5009235;28;21020;-90
2022/10/17 06:07:51;;;;;;;3.67;3.37;;;;;;;13.80;100.00;154905.41;5016925;28;20482;-89
2022/10/17 06:10:19;;;;;;;3.83;3.53;;;;;;;13.88;100.00;154926.19;5022540;28;20499;-89
2022/10/17 06:12:46;;;;;;;4.63;3.80;;;;;;;13.99;100.00;154953.44;4996643;28;20488;-90
2022/10/17 06:15:14;;;;;;;9.03;3.93;;;;;;;14.09;100.00;154979.41;5013084;28;20458;-90
2022/10/17 06:17:45;;;;;;;4.30;3.07;;;;;;;14.13;100.00;154989.81;5010493;28;20801;-90
2022/10/17 06:20:12;;;;;;;4.53;3.77;;;;;;;14.21;100.00;155009.28;5013317;28;20540;-90
2022/10/17 06:22:38;;;;;;;5.70;4.20;;;;;;;14.25;100.00;155020.94;5029895;28;20451;-90
2022/10/17 06:25:11;;;;;;;5.47;4.97;;;;;;;14.34;100.00;155043.09;4999941;28;20461;-90
2022/10/17 06:27:38;;;;;;;5.70;4.27;;;;;;;14.41;100.00;155062.56;5013968;28;20441;-90
2022/10/17 06:30:06;;;;;;;10.80;4.60;;;;;;;14.53;100.00;155092.47;4996492;28;20924;-90
2022/10/17 06:32:32;;;;;;;5.17;3.80;;;;;;;14.71;100.00;155137.91;5013286;28;20927;-90
2022/10/17 06:35:00;;;;;;;7.63;4.20;;;;;;;14.94;100.00;155197.66;5023537;28;20459;-90
2022/10/17 06:37:31;;;;;;;6.17;3.43;;;;;;;15.07;100.00;155231.41;4998245;28;20476;-90
2022/10/17 06:39:58;;;;;;;6.37;4.03;;;;;;;15.15;100.00;155252.22;5015996;28;20479;-90
2022/10/17 06:42:25;;;;;;;3.97;3.40;;;;;;;15.27;100.00;155283.44;5016444;28;20951;-90
2022/10/17 06:45:24;;;;;;;5.87;4.00;;;;;;;15.52;100.00;155348.44;5011874;28;20454;-90
2022/10/17 06:47:56;;;;;;;5.97;3.67;;;;;;;15.75;100.00;155408.22;5014799;28;20938;-90
2022/10/17 06:50:45;;;;;;;6.40;3.57;;;;;;;15.99;100.00;155468.06;5032345;28;20502;-90
2022/10/17 06:53:16;;;;;;;4.90;3.63;;;;;;;16.18;100.00;155518.75;5032202;28;20555;-91
2022/10/17 06:55:52;;;;;;;3.40;3.00;;;;;;;16.46;100.00;155590.28;5028282;28;20463;-91
2022/10/17 06:58:25;;;;;;;4.00;3.60;;;;;;;16.76;100.00;155668.38;5016040;28;20444;-91
2022/10/17 07:01:06;;;;;;;4.50;3.67;;;;;;;17.10;100.00;155754.25;5035255;28;20451;-91
2022/10/17 07:03:34;;;;;;;5.23;4.13;;;;;;;17.29;100.00;155803.72;5016408;28;20436;-91
2022/10/17 07:06:02;;;;;;;4.90;4.40;;;;;;;17.41;100.00;155834.94;5015973;28;20534;-91
2022/10/17 07:08:29;;;;;;;7.53;4.50;;;;;;;17.56;98.89;155874.03;5016281;28;20574;-91
2022/10/17 07:10:56;;;;;;;4.40;4.00;;;;;;;17.79;97.21;155933.91;5000705;28;20444;-92
2022/10/17 07:13:24;;;;;;;5.20;4.37;;;;;;;17.96;95.51;155976.88;5004420;28;20491;-92
2022/10/17 07:15:51;;;;;;;5.80;4.00;;;;;;;18.18;93.60;156035.50;4996988;28;20453;-92
2022/10/17 07:18:18;;;;;;;5.90;3.70;;;;;;;18.44;93.08;156100.59;4997652;28;20571;-92
2022/10/17 07:20:52;;;;;;;4.77;3.70;;;;;;;18.66;91.26;156158.00;5013979;28;20511;-92
2022/10/17 07:23:20;;;;;;;6.27;3.50;;;;;;;19.00;91.34;156246.59;5030316;28;20541;-92
2022/10/17 07:25:47;;;;;;;3.83;3.53;;;;;;;19.11;90.12;156273.94;5034338;28;20459;-92
2022/10/17 07:28:16;;;;;;;5.80;4.60;;;;;;;19.34;89.41;156335.19;5016231;28;20489;-93
2022/10/17 07:30:43;;;;;;;5.57;3.33;;;;;;;19.59;88.81;156397.81;5033532;28;20440;-92
2022/10/17 07:33:12;;;;;;;4.80;3.93;;;;;;;19.79;87.56;156451.28;5033717;28;20551;-93
2022/10/17 07:35:40;;;;;;;5.43;3.60;;;;;;;19.98;86.24;156499.50;5017185;28;20451;-93
2022/10/17 07:38:07;;;;;;;4.47;3.17;;;;;;;19.91;84.73;156482.53;5033472;28;20468;-93
2022/10/17 07:40:36;;;;;;;4.10;3.30;;;;;;;19.89;83.04;156476.03;5017146;28;20514;-93
2022/10/17 07:43:02;;;;;;;4.83;3.30;;;;;;;19.97;84.49;156496.88;5017040;28;20609;-93
2022/10/17 07:45:30;;;;;;;7.40;2.80;;;;;;;20.12;84.30;156536.00;5017165;28;20444;-92
2022/10/17 07:47:57;;;;;;;5.47;3.07;;;;;;;20.00;82.93;156506.03;5016885;28;20436;-93
2022/10/17 07:50:24;;;;;;;5.20;3.70;;;;;;;20.01;83.69;156507.34;5016906;28;20432;-93
2022/10/17 07:52:50;;;;;;;6.73;3.13;;;;;;;19.98;84.05;156499.50;5016954;28;20918;-93
2022/10/17 07:55:17;;;;;;;4.80;2.70;;;;;;;19.83;82.43;156460.41;5017374;28;20435;-92
2022/10/17 07:57:45;;;;;;;4.10;2.90;;;;;;;19.68;82.71;156422.56;5016616;28;20478;-92
2022/10/17 08:00:12;;;;;;;4.43;2.70;;;;;;;19.69;82.59;156425.19;5016612;28;20424;-92
2022/10/17 08:02:39;;;;;;;4.80;2.80;;;;;;;19.66;84.37;156416.06;5033417;28;20462;-92
2022/10/17 08:05:06;;;;;;;4.53;2.67;;;;;;;19.79;82.66;156449.94;5016748;28;20434;-92
2022/10/17 08:07:33;;;;;;;4.70;2.93;;;;;;;19.78;82.50;156448.63;5016964;28;20452;-92
2022/10/17 08:10:00;;;;;;;4.03;2.33;;;;;;;19.81;82.97;156456.47;5016255;28;20502;-91
2022/10/17 08:12:30;;;;;;;5.20;2.60;;;;;;;19.69;82.09;156423.88;5016725;28;20490;-91
2022/10/17 08:14:58;;;;;;;3.30;2.70;;;;;;;19.59;83.53;156397.81;5016923;28;20452;-91
2022/10/17 08:17:25;;;;;;;5.20;2.70;;;;;;;19.55;84.85;156387.38;5016755;28;20468;-92
2022/10/17 08:19:52;;;;;;;3.87;2.57;;;;;;;19.57;83.62;156392.56;5016584;28;20813;-91
2022/10/17 08:22:19;;;;;;;3.37;2.80;;;;;;;19.59;83.13;156399.09;5016750;28;20893;-91
2022/10/17 08:24:46;;;;;;;3.80;3.03;;;;;;;19.66;83.91;156417.38;5016260;28;20519;-91
2022/10/17 08:27:13;;;;;;;5.63;3.20;;;;;;;19.60;83.61;156401.72;5016626;28;20436;-91
2022/10/17 08:29:40;;;;;;;5.27;3.57;;;;;;;19.50;84.11;156374.34;5016913;28;20451;-91
2022/10/17 08:32:09;;;;;;;8.13;3.60;;;;;;;19.51;82.95;156376.97;5016766;28;20961;-91
2022/10/17 08:34:35;;;;;;;4.53;2.80;;;;;;;19.43;85.30;156358.69;5016814;28;20428;-91
2022/10/17 08:37:02;;;;;;;7.20;3.20;;;;;;;19.49;83.99;156371.72;5016193;28;20479;-91
2022/10/17 08:39:29;;;;;;;4.63;2.60;;;;;;;19.57;83.23;156392.56;5015989;28;20432;-91
2022/10/17 08:42:03;;;;;;;4.63;3.00;;;;;;;19.59;83.58;156397.81;5016448;28;20444;-91
2022/10/17 08:44:39;;;;;;;3.40;2.80;;;;;;;19.57;83.58;156393.88;5016472;28;20869;-91
2022/10/17 08:47:12;;;;;;;6.23;3.50;;;;;;;19.56;83.87;156390.00;5016421;28;20789;-91
2022/10/17 08:49:45;;;;;;;5.27;2.87;;;;;;;19.67;83.88;156419.94;5032443;28;20873;-91
2022/10/17 08:52:18;;;;;;;10.27;3.20;;;;;;;19.73;83.68;156434.28;5016373;28;20957;-90
2022/10/17 08:54:46;;;;;;;4.73;3.30;;;;;;;19.82;83.36;156459.09;5032453;28;20436;-90
2022/10/17 08:57:15;;;;;;;7.13;3.40;;;;;;;19.82;84.56;156457.78;5016127;28;21005;-90
2022/10/17 08:59:42;;;;;;;7.30;3.37;;;;;;;19.83;84.45;156460.41;5015923;28;20431;-91
2022/10/17 09:02:27;;;;;;;9.10;3.60;;;;;;;19.87;83.78;156472.13;5015970;28;20448;-91
2022/10/17 09:05:15;;;;;;;5.03;3.50;;;;;;;19.92;84.34;156485.16;5031933;28;20412;-91
2022/10/17 09:07:46;;;;;;;7.80;3.73;;;;;;;19.83;84.57;156460.41;5014286;28;20451;-91
2022/10/17 09:10:18;;;;;;;4.30;3.63;;;;;;;19.75;84.81;156440.81;5014521;28;20835;-89
2022/10/17 09:12:51;;;;;;;10.10;4.30;;;;;;;19.77;86.54;156446.06;5014987;28;20416;-91
2022/10/17 09:15:34;;;;;;;5.23;3.70;;;;;;;19.81;85.83;156456.47;5002758;28;20524;-91
2022/10/17 09:18:09;;;;;;;7.53;3.70;;;;;;;19.84;85.89;156463.00;5014990;28;20827;-91
2022/10/17 09:20:43;;;;;;;4.63;3.30;;;;;;;19.82;84.81;156457.78;5026654;28;20447;-77
2022/10/17 09:23:13;;;;;;;5.37;3.50;;;;;;;19.93;84.90;156486.47;5023657;28;20424;-77
2022/10/17 09:25:43;;;;;;;8.03;3.37;;;;;;;20.02;84.23;156509.91;5025782;28;20464;-77
2022/10/17 09:28:20;;;;;;;6.40;3.50;;;;;;;20.07;84.66;156521.69;5022261;28;20521;-77
2022/10/17 09:30:50;;;;;;;6.20;3.10;;;;;;;20.09;84.17;156528.22;5029208;28;20481;-77
2022/10/17 09:33:21;;;;;;;3.60;2.87;;;;;;;20.06;85.35;156520.38;5022443;28;20465;-77
2022/10/17 09:35:49;;;;;;;8.07;3.17;;;;;;;20.15;84.90;156543.81;5026760;28;20934;-77
2022/10/17 09:38:18;;;;;;;5.50;3.40;;;;;;;20.22;84.38;156560.81;5030606;28;20570;-77
2022/10/17 09:40:45;;;;;;;5.50;3.33;;;;;;;20.25;84.85;156570.00;5031871;28;20443;-77
2022/10/17 09:43:13;;;;;;;4.20;3.10;;;;;;;20.26;84.62;156571.25;5032409;28;20483;-77
2022/10/17 09:45:45;;;;;;;3.40;3.10;;;;;;;20.28;84.93;156577.78;5014064;28;20815;-77
2022/10/17 09:48:20;;;;;;;3.50;3.20;;;;;;;20.26;85.10;156571.25;5021467;28;20452;-77
2022/10/17 09:50:47;;;;;;;5.33;3.13;;;;;;;20.34;84.58;156592.13;5014769;28;20459;-77
2022/10/17 09:53:20;;;;;;;4.43;3.07;;;;;;;20.42;83.66;156613.00;5029539;28;20428;-77
2022/10/17 09:55:48;;;;;;;7.93;3.67;;;;;;;20.43;84.03;156616.94;5035738;28;20465;-77
2022/10/17 09:58:15;;;;;;;3.47;2.93;;;;;;;20.48;84.42;156628.66;5046792;28;20470;-77
2022/10/17 10:00:44;;;;;;;4.00;3.30;;;;;;;20.54;81.81;156644.34;5050588;28;20478;-77
2022/10/17 10:03:15;;;;;;;5.63;3.37;;;;;;;20.49;86.95;156632.56;5037340;28;20517;-77
2022/10/17 10:05:58;;;;;;;4.10;3.10;;;;;;;20.49;82.09;156632.56;5021085;28;20509;-77
2022/10/17 10:08:28;;;;;;;3.30;2.97;;;;;;;20.47;83.80;156627.34;5027093;28;20923;-77
2022/10/17 10:11:02;;;;;;;7.83;2.97;;;;;;;20.47;82.99;156627.34;5030259;28;20447;-77
2022/10/17 10:16:42;;;;;;;4.30;3.00;;;;;;;20.48;82.46;156629.97;5033813;22;20487;-91
2022/10/17 10:19:20;;;;;;;5.87;3.10;;;;;;;20.60;81.90;156661.28;5035226;28;20459;-92
2022/10/17 10:21:55;;;;;;;4.37;3.43;;;;;;;20.93;77.93;156744.78;5032811;28;20460;-92
2022/10/17 10:24:24;;;;;;;8.93;3.20;;;;;;;20.95;79.30;156750.00;5015962;28;20933;-92
2022/10/17 10:26:52;;;;;;;5.33;2.83;;;;;;;20.81;80.39;156714.75;5033143;28;21033;-92
2022/10/17 10:29:29;;;;;;;7.23;3.13;;;;;;;20.74;79.94;156695.19;5033720;28;20440;-92
2022/10/17 10:31:57;;;;;;;3.10;2.53;;;;;;;20.77;79.48;156703.03;5033428;28;20455;-90
2022/10/17 10:34:25;;;;;;;4.27;3.30;;;;;;;20.89;81.71;156735.63;5033594;28;20446;-89
2022/10/17 10:36:57;;;;;;;7.23;3.10;;;;;;;20.95;82.17;156751.31;5033280;28;20454;-92
2022/10/17 10:39:32;;;;;;;5.03;2.87;;;;;;;20.93;82.18;156744.78;5032368;28;20487;-89
2022/10/17 10:41:59;;;;;;;5.17;2.80;;;;;;;20.96;81.68;156752.63;5032691;28;20451;-92
2022/10/17 10:44:28;;;;;;;3.90;2.70;;;;;;;20.93;82.12;156744.78;5033967;28;20462;-92
2022/10/17 10:47:09;;;;;;;6.43;2.73;;;;;;;20.89;83.00;156734.38;5031788;28;20452;-92
2022/10/17 10:49:38;;;;;;;6.73;3.00;;;;;;;20.86;83.57;156726.53;5026008;28;20476;-92
2022/10/17 10:52:06;;;;;;;6.93;3.20;;;;;;;20.87;83.92;156729.09;5031244;28;20470;-92
2022/10/17 10:54:37;;;;;;;4.50;3.00;;;;;;;20.84;85.55;156721.28;5033682;28;20494;-93
2022/10/17 10:57:07;;;;;;;11.03;3.53;;;;;;;20.86;85.96;156727.84;5021779;28;20449;-92
2022/10/17 11:00:05;;;;;;;6.27;3.10;;;;;;;20.94;86.85;156747.41;5035245;22;20507;-78
2022/10/17 11:02:38;;;;;;;6.97;3.57;;;;;;;21.03;85.83;156772.19;5030079;28;20462;-77
2022/10/17 11:05:12;;;;;;;4.30;3.43;;;;;;;20.98;84.29;156757.81;4999609;28;20444;-77
2022/10/17 11:07:43;;;;;;;2.90;2.67;;;;;;;20.99;83.26;156761.75;5031137;28;20941;-77
2022/10/17 11:10:14;;;;;;;3.87;2.97;;;;;;;20.99;80.65;156761.75;5021712;28;20453;-77
2022/10/17 11:12:43;;;;;;;5.37;2.80;;;;;;;21.01;80.96;156765.66;5026807;28;20446;-77
2022/10/17 11:15:19;;;;;;;2.90;2.50;;;;;;;21.01;80.31;156765.66;4996635;28;20527;-77
2022/10/17 11:17:55;;;;;;;4.33;2.67;;;;;;;21.00;80.96;156763.03;5012137;28;20451;-77
2022/10/17 11:20:28;;;;;;;3.83;2.77;;;;;;;21.00;81.64;156764.34;5040259;28;20543;-77
2022/10/17 11:23:04;;;;;;;6.03;2.70;;;;;;;21.12;79.91;156794.44;5030027;28;20640;-78
2022/10/17 11:25:34;;;;;;;5.03;2.53;;;;;;;21.37;78.80;156859.66;5008480;28;20810;-77
2022/10/17 11:28:01;;;;;;;3.90;2.10;;;;;;;21.34;77.47;156851.81;5005159;28;20452;-77
2022/10/17 11:30:39;;;;;;;3.87;2.50;;;;;;;21.31;79.45;156844.03;5031485;28;20845;-77
2022/10/17 11:33:06;;;;;;;5.70;2.80;;;;;;;21.49;76.31;156889.69;5026240;28;20539;-77
2022/10/17 11:35:36;;;;;;;5.80;2.43;;;;;;;21.54;75.64;156904.06;5026162;28;20483;-77